Time;durP1;ratioP1;P1;durP2;ratioP2;P2;SDS_P1;SDS_P2;PMS_P1;PMS_P2;Temp;Humidity;BMP_temperature;BMP_pressure;BME280_temperature;BME280_humidity;BME280_pressure;Samples;Min_cycle;Max_cycle;Signal;HPM_P1;HPM_P2
2022/07/24 00:02:33;;;;;;;15.10;9.68;;;;;;;18.00;100.00;100954.56;8354765;28;20061;-51
2022/07/24 00:06:34;;;;;;;15.40;9.75;;;;;;;17.94;100.00;100960.75;8354454;28;20645;-50
2022/07/24 00:10:34;;;;;;;17.73;11.02;;;;;;;17.83;100.00;100955.63;8356213;28;20098;-50
2022/07/24 00:14:35;;;;;;;15.95;10.82;;;;;;;17.77;100.00;100967.28;8337502;28;20040;-51
2022/07/24 00:18:35;;;;;;;18.45;10.32;;;;;;;17.70;100.00;100960.81;8330113;28;20497;-53
2022/07/24 00:22:36;;;;;;;17.25;10.05;;;;;;;17.75;100.00;100961.13;8317648;28;20041;-51
2022/07/24 00:26:37;;;;;;;15.10;10.05;;;;;;;17.82;100.00;100958.56;8325404;28;20568;-51
2022/07/24 00:30:37;;;;;;;11.25;9.60;;;;;;;17.82;100.00;100951.22;8356593;28;20045;-50
2022/07/24 00:34:38;;;;;;;12.50;9.98;;;;;;;17.76;100.00;100940.97;8360803;28;20516;-52
2022/07/24 00:38:38;;;;;;;17.40;10.65;;;;;;;17.73;100.00;100946.78;8316792;28;20120;-53
2022/07/24 00:42:39;;;;;;;13.07;10.88;;;;;;;17.50;100.00;100945.81;8328790;28;20083;-52
2022/07/24 00:46:41;;;;;;;14.80;10.85;;;;;;;17.49;100.00;100941.41;8330095;28;20119;-49
2022/07/24 00:50:43;;;;;;;16.50;10.30;;;;;;;17.56;100.00;100946.00;8337633;28;20051;-49
2022/07/24 00:54:44;;;;;;;14.00;10.95;;;;;;;17.58;100.00;100943.06;8356913;28;20071;-50
2022/07/24 00:58:47;;;;;;;14.63;10.30;;;;;;;17.53;100.00;100946.34;8354588;28;20033;-49
2022/07/24 01:02:48;;;;;;;14.93;11.13;;;;;;;17.48;100.00;100956.94;8360904;28;20505;-50
2022/07/24 01:06:49;;;;;;;15.75;11.35;;;;;;;17.49;100.00;100952.31;8359907;28;20033;-50
2022/07/24 01:10:49;;;;;;;17.45;11.65;;;;;;;17.48;100.00;100948.72;8337540;28;20041;-51
2022/07/24 01:14:50;;;;;;;14.52;11.45;;;;;;;17.41;100.00;100946.84;8325456;28;20060;-50
2022/07/24 01:18:50;;;;;;;15.95;10.60;;;;;;;17.40;100.00;100950.59;8328966;28;20030;-50
2022/07/24 01:22:50;;;;;;;15.55;11.50;;;;;;;17.40;100.00;100946.00;8305809;28;20057;-50
2022/07/24 01:26:51;;;;;;;15.32;11.80;;;;;;;17.31;100.00;100940.72;8344804;28;20059;-51
2022/07/24 01:30:52;;;;;;;19.65;11.20;;;;;;;17.34;100.00;100946.69;8358373;28;20033;-51
2022/07/24 01:34:52;;;;;;;15.70;12.43;;;;;;;17.31;100.00;100943.44;8359356;28;20029;-50
2022/07/24 01:38:53;;;;;;;14.45;10.48;;;;;;;17.30;100.00;100939.84;8359465;28;20044;-50
2022/07/24 01:42:53;;;;;;;16.27;11.13;;;;;;;17.27;100.00;100936.63;8343795;28;20045;-49
2022/07/24 01:46:53;;;;;;;15.13;11.18;;;;;;;17.23;100.00;100938.00;8327194;28;20033;-50
2022/07/24 01:50:54;;;;;;;18.08;10.75;;;;;;;17.24;100.00;100928.78;8326581;28;20124;-51
2022/07/24 01:54:54;;;;;;;14.20;10.48;;;;;;;17.25;100.00;100935.94;8327441;28;20029;-51
2022/07/24 01:58:55;;;;;;;16.85;11.18;;;;;;;17.30;100.00;100925.34;8314463;28;20040;-50
2022/07/24 02:02:55;;;;;;;15.60;11.77;;;;;;;17.28;100.00;100932.84;8335097;28;20034;-50
2022/07/24 02:06:55;;;;;;;17.87;11.70;;;;;;;17.27;100.00;100933.91;8325917;28;20520;-50
2022/07/24 02:10:56;;;;;;;16.58;11.43;;;;;;;17.18;100.00;100929.47;8326424;28;20274;-50
2022/07/24 02:14:56;;;;;;;16.75;11.68;;;;;;;17.08;100.00;100929.63;8327086;28;20064;-50
2022/07/24 02:18:57;;;;;;;14.98;11.68;;;;;;;17.03;100.00;100925.72;8325631;28;20029;-52
2022/07/24 02:22:57;;;;;;;14.48;10.70;;;;;;;17.00;100.00;100926.94;8327055;28;20037;-54
2022/07/24 02:26:58;;;;;;;15.18;10.68;;;;;;;17.00;100.00;100921.47;8326385;28;20375;-53
2022/07/24 02:30:58;;;;;;;16.08;11.50;;;;;;;16.96;100.00;100927.44;8354668;28;20504;-49
2022/07/24 02:34:59;;;;;;;17.05;11.55;;;;;;;16.87;100.00;100914.81;8357817;28;20456;-51
2022/07/24 02:38:59;;;;;;;22.88;12.32;;;;;;;16.93;100.00;100920.41;8356169;28;20049;-50
2022/07/24 02:42:59;;;;;;;16.05;12.07;;;;;;;16.93;100.00;100916.84;8346911;28;20048;-54
2022/07/24 02:47:00;;;;;;;15.10;11.90;;;;;;;16.96;100.00;100914.63;8324686;28;20625;-50
2022/07/24 02:51:00;;;;;;;18.80;12.60;;;;;;;16.91;100.00;100910.69;8305557;28;20091;-52
2022/07/24 02:55:01;;;;;;;18.00;12.02;;;;;;;16.94;100.00;100915.81;8336438;28;20405;-52
2022/07/24 02:59:02;;;;;;;13.80;10.95;;;;;;;16.90;100.00;100917.19;8351068;28;20088;-52
2022/07/24 03:03:02;;;;;;;15.00;11.63;;;;;;;16.91;100.00;100903.38;8357540;28;20035;-50
2022/07/24 03:07:03;;;;;;;16.80;11.82;;;;;;;16.94;100.00;100904.91;8356746;28;20032;-52
2022/07/24 03:11:03;;;;;;;16.80;11.93;;;;;;;16.91;100.00;100911.56;8357672;28;20071;-50
2022/07/24 03:15:04;;;;;;;18.25;11.98;;;;;;;16.88;100.00;100911.91;8311119;28;20088;-50
2022/07/24 03:19:05;;;;;;;14.18;11.60;;;;;;;16.90;100.00;100909.00;8317971;28;20041;-50
2022/07/24 03:23:06;;;;;;;14.65;11.15;;;;;;;16.88;100.00;100900.13;8324136;28;20173;-53
2022/07/24 03:27:06;;;;;;;16.55;11.95;;;;;;;16.90;100.00;100896.19;8324837;28;20108;-51
2022/07/24 03:31:06;;;;;;;16.02;11.85;;;;;;;16.91;100.00;100906.09;8354949;28;20443;-49
2022/07/24 03:35:07;;;;;;;16.35;10.82;;;;;;;16.91;100.00;100907.97;8356369;28;20037;-50
2022/07/24 03:39:08;;;;;;;18.17;12.05;;;;;;;16.88;100.00;100916.50;8348318;28;20103;-52
2022/07/24 03:43:08;;;;;;;17.45;12.35;;;;;;;16.80;100.00;100908.34;8318435;28;20037;-53
2022/07/24 03:47:09;;;;;;;18.55;12.35;;;;;;;16.74;100.00;100909.03;8324949;28;20056;-51
2022/07/24 03:51:09;;;;;;;21.30;12.85;;;;;;;16.72;100.00;100916.50;8325263;28;20037;-54
2022/07/24 03:55:09;;;;;;;20.00;13.32;;;;;;;16.72;100.00;100905.59;8325229;28;20041;-53
2022/07/24 03:59:10;;;;;;;18.63;13.50;;;;;;;16.72;100.00;100917.38;8324504;28;20119;-51
2022/07/24 04:03:10;;;;;;;16.23;13.20;;;;;;;16.75;100.00;100907.97;8328547;28;20026;-50
2022/07/24 04:07:11;;;;;;;19.52;13.38;;;;;;;16.86;100.00;100918.53;8329536;28;20044;-52
2022/07/24 04:11:11;;;;;;;15.27;13.30;;;;;;;16.90;100.00;100920.75;8330811;28;20068;-51
2022/07/24 04:15:12;;;;;;;17.13;12.35;;;;;;;16.89;100.00;100916.34;8329352;28;20060;-52
2022/07/24 04:19:12;;;;;;;14.73;12.05;;;;;;;16.91;100.00;100916.16;8330535;28;20517;-52
2022/07/24 04:23:13;;;;;;;15.10;12.25;;;;;;;16.99;100.00;100916.16;8312904;28;20037;-53
2022/07/24 04:27:13;;;;;;;16.23;12.50;;;;;;;17.03;100.00;100920.25;8330670;28;20569;-51
2022/07/24 04:31:13;;;;;;;21.17;11.82;;;;;;;17.08;100.00;100912.41;8332388;28;20052;-49
2022/07/24 04:35:14;;;;;;;13.80;11.43;;;;;;;17.20;100.00;100911.03;8330386;28;20041;-50
2022/07/24 04:39:14;;;;;;;19.08;11.48;;;;;;;17.34;100.00;100913.03;8329916;28;20072;-50
2022/07/24 04:43:15;;;;;;;19.23;11.75;;;;;;;17.43;100.00;100909.28;8330148;28;20421;-51
2022/07/24 04:47:15;;;;;;;14.57;11.48;;;;;;;17.51;100.00;100909.28;8311406;28;20541;-50
2022/07/24 04:51:16;;;;;;;14.13;10.73;;;;;;;17.64;100.00;100912.31;8304393;28;20053;-50
2022/07/24 04:55:16;;;;;;;11.55;10.05;;;;;;;17.81;100.00;100916.66;8330288;28;20030;-53
2022/07/24 04:59:16;;;;;;;13.77;11.18;;;;;;;17.95;99.11;100913.19;8346481;28;20064;-52
2022/07/24 05:03:17;;;;;;;15.93;11.50;;;;;;;18.18;97.81;100907.78;8360901;28;20037;-51
2022/07/24 05:07:18;;;;;;;13.10;10.30;;;;;;;18.37;96.65;100907.34;8360734;28;20521;-50
2022/07/24 05:11:18;;;;;;;12.15;10.25;;;;;;;18.55;96.21;100911.50;8360743;28;20501;-50
2022/07/24 05:15:18;;;;;;;15.05;9.82;;;;;;;18.59;95.51;100907.34;8331640;28;20049;-50
2022/07/24 05:19:19;;;;;;;14.93;9.52;;;;;;;18.66;95.45;100912.97;8325838;28;20378;-53
2022/07/24 05:23:19;;;;;;;12.95;9.73;;;;;;;18.73;95.53;100906.53;8328737;28;20045;-50
2022/07/24 05:27:20;;;;;;;16.13;10.85;;;;;;;18.89;95.29;100911.91;8328177;28;20038;-52
2022/07/24 05:31:20;;;;;;;13.65;9.55;;;;;;;19.13;94.25;100908.09;8341232;28;20432;-54
2022/07/24 05:35:21;;;;;;;10.90;9.20;;;;;;;19.03;94.72;100916.56;8332151;28;20073;-50
2022/07/24 05:39:21;;;;;;;12.15;10.13;;;;;;;19.09;95.80;100918.56;8310593;28;20124;-50
2022/07/24 05:43:22;;;;;;;14.93;10.85;;;;;;;19.22;95.48;100927.00;8328141;28;20025;-51
2022/07/24 05:47:22;;;;;;;13.35;9.95;;;;;;;19.58;93.37;100916.22;8327972;28;20072;-51
2022/07/24 05:51:23;;;;;;;11.57;9.50;;;;;;;19.91;91.34;100922.16;8327732;28;20199;-51
2022/07/24 05:55:23;;;;;;;11.82;9.20;;;;;;;20.10;89.47;100938.03;8327735;28;20069;-54
2022/07/24 05:59:24;;;;;;;13.25;9.57;;;;;;;20.12;89.24;100938.66;8319010;28;20053;-50
2022/07/24 06:03:25;;;;;;;10.45;9.18;;;;;;;20.30;87.84;100933.66;8322864;28;20084;-50
2022/07/24 06:07:25;;;;;;;10.35;8.75;;;;;;;20.56;87.52;100917.47;8323996;28;20049;-52
2022/07/24 06:11:25;;;;;;;11.25;7.82;;;;;;;20.74;85.36;100920.63;8313227;28;20128;-52
2022/07/24 06:15:26;;;;;;;10.27;8.87;;;;;;;21.03;85.97;100926.00;8309977;28;20406;-54
2022/07/24 06:19:26;;;;;;;9.88;7.43;;;;;;;21.55;81.88;100920.91;8322098;28;20288;-50
2022/07/24 06:23:27;;;;;;;11.30;7.63;;;;;;;21.80;80.94;100924.06;8299895;28;20045;-51
2022/07/24 06:27:27;;;;;;;10.00;7.13;;;;;;;21.95;79.47;100928.38;8317362;28;20199;-50
2022/07/24 06:31:27;;;;;;;8.60;7.13;;;;;;;22.32;78.59;100930.66;8323844;28;20083;-51
2022/07/24 06:35:28;;;;;;;13.67;7.50;;;;;;;22.50;77.12;100925.44;8326351;28;20041;-50
2022/07/24 06:39:28;;;;;;;7.45;6.65;;;;;;;22.63;76.19;100922.72;8326344;28;20284;-49
2022/07/24 06:43:29;;;;;;;10.05;6.95;;;;;;;22.85;74.71;100924.28;8326429;28;20042;-52
2022/07/24 06:47:29;;;;;;;9.98;6.80;;;;;;;23.13;74.10;100919.41;8326195;28;20041;-52
2022/07/24 06:51:29;;;;;;;9.23;6.90;;;;;;;23.46;74.43;100929.59;8326224;28;20448;-51
2022/07/24 06:55:30;;;;;;;10.27;6.60;;;;;;;23.72;73.38;100935.09;8323178;28;20115;-50
2022/07/24 06:59:30;;;;;;;11.60;6.37;;;;;;;23.55;72.70;100931.06;8332205;28;20054;-51
2022/07/24 07:03:31;;;;;;;6.95;6.18;;;;;;;23.45;72.32;100927.91;8321039;28;20677;-50
2022/07/24 07:07:31;;;;;;;9.27;5.80;;;;;;;23.69;71.56;100941.03;8320842;28;20041;-50
2022/07/24 07:11:32;;;;;;;9.27;6.30;;;;;;;23.88;70.72;100934.63;8324277;28;20658;-50
2022/07/24 07:15:32;;;;;;;8.45;6.53;;;;;;;24.10;69.90;100936.06;8325846;28;20033;-52
2022/07/24 07:19:33;;;;;;;7.50;5.95;;;;;;;24.62;68.63;100938.59;8301586;28;20115;-50
2022/07/24 07:23:33;;;;;;;7.07;5.47;;;;;;;24.78;66.83;100943.63;8317037;28;20048;-50
2022/07/24 07:27:35;;;;;;;7.47;6.00;;;;;;;25.02;66.93;100940.06;8323314;28;20045;-50
2022/07/24 07:31:36;;;;;;;11.40;6.28;;;;;;;25.24;67.26;100938.59;8355111;28;20048;-54
2022/07/24 07:35:36;;;;;;;8.93;5.88;;;;;;;25.18;67.54;100933.97;8333475;28;20025;-51
2022/07/24 07:39:36;;;;;;;6.50;5.28;;;;;;;25.11;65.79;100944.25;8331433;28;20037;-50
2022/07/24 07:43:37;;;;;;;7.20;6.03;;;;;;;25.23;65.99;100936.91;8313869;28;20595;-50
2022/07/24 07:47:38;;;;;;;6.38;5.20;;;;;;;25.38;65.46;100929.16;8327986;28;20476;-53
2022/07/24 07:51:38;;;;;;;6.80;5.25;;;;;;;25.75;64.64;100930.06;8327259;28;20072;-51
2022/07/24 07:55:39;;;;;;;8.88;5.32;;;;;;;25.47;64.42;100927.78;8333815;28;20107;-52
2022/07/24 07:59:39;;;;;;;6.32;5.47;;;;;;;25.48;63.90;100929.47;8344353;28;20042;-51
2022/07/24 08:03:39;;;;;;;6.50;5.57;;;;;;;25.48;65.41;100932.25;8330517;28;20031;-50
2022/07/24 08:07:40;;;;;;;6.90;5.75;;;;;;;25.84;64.70;100940.63;8330984;28;20269;-51
2022/07/24 08:11:40;;;;;;;8.25;5.68;;;;;;;25.93;62.85;100939.25;8319229;28;20029;-52
2022/07/24 08:15:41;;;;;;;7.75;5.63;;;;;;;26.35;62.80;100935.53;8329904;28;20033;-51
2022/07/24 08:19:41;;;;;;;6.85;4.80;;;;;;;26.71;63.54;100932.72;8330549;28;20083;-52
2022/07/24 08:23:42;;;;;;;6.72;5.22;;;;;;;26.84;61.73;100932.53;8331001;28;20042;-50
2022/07/24 08:27:42;;;;;;;6.03;5.13;;;;;;;26.88;62.25;100920.94;8329763;28;20123;-49
2022/07/24 08:31:43;;;;;;;6.20;5.47;;;;;;;26.79;61.54;100917.66;8362056;28;20343;-53
2022/07/24 08:35:44;;;;;;;6.10;4.93;;;;;;;26.75;61.68;100910.91;8362269;28;20170;-49
2022/07/24 08:39:44;;;;;;;7.45;4.90;;;;;;;26.52;62.16;100928.28;8327546;28;20038;-51
2022/07/24 08:43:44;;;;;;;7.63;5.63;;;;;;;26.99;62.47;100918.22;8326985;28;20088;-53
2022/07/24 08:47:45;;;;;;;6.60;5.78;;;;;;;26.99;60.13;100925.69;8320504;28;20042;-50
2022/07/24 08:51:48;;;;;;;6.30;5.38;;;;;;;27.13;60.21;100925.25;8328276;28;20046;-50
2022/07/24 08:55:49;;;;;;;9.23;5.18;;;;;;;27.00;59.36;100914.34;8326038;28;20404;-50
2022/07/24 08:59:50;;;;;;;8.20;5.30;;;;;;;27.28;60.08;100906.22;8324018;28;20041;-51
2022/07/24 09:03:50;;;;;;;5.88;5.00;;;;;;;27.62;60.45;100897.03;8315436;28;20060;-51
2022/07/24 09:08:10;;;;;;;7.60;5.38;;;;;;;27.67;57.38;100896.31;8324690;28;20523;-54
2022/07/24 09:12:14;;;;;;;9.32;5.40;;;;;;;27.40;57.35;100886.78;8301642;28;20568;-50
2022/07/24 09:16:22;;;;;;;;;;;;;;;27.71;57.85;100886.41;8309100;28;20123;-52
2022/07/24 09:20:24;;;;;;;9.23;5.72;;;;;;;27.43;57.58;100891.84;8317126;28;20129;-51
2022/07/24 09:24:25;;;;;;;9.48;5.25;;;;;;;27.98;57.58;100884.81;8321876;28;20080;-54
2022/07/24 09:28:25;;;;;;;9.05;5.82;;;;;;;28.11;57.48;100884.53;8315325;28;20553;-50
2022/07/24 09:32:26;;;;;;;8.77;5.88;;;;;;;28.72;56.75;100872.72;8319877;28;20051;-53
2022/07/24 09:36:27;;;;;;;12.55;5.13;;;;;;;29.20;56.22;100868.31;8315745;28;20041;-54
2022/07/24 09:40:31;;;;;;;10.95;5.13;;;;;;;28.97;56.33;100865.66;8295819;28;20050;-51
2022/07/24 09:44:32;;;;;;;9.13;5.60;;;;;;;28.86;55.57;100855.44;8316751;28;20041;-54
2022/07/24 09:48:35;;;;;;;12.93;5.53;;;;;;;29.02;54.63;100860.19;8307140;28;20552;-50
2022/07/24 09:52:37;;;;;;;5.28;4.80;;;;;;;29.22;54.99;100855.00;8319870;28;20029;-53
2022/07/24 09:56:38;;;;;;;5.50;5.03;;;;;;;29.77;55.24;100858.66;8298215;28;20436;-53
2022/07/24 10:00:42;;;;;;;8.35;5.10;;;;;;;30.81;52.69;100842.59;8330640;28;20552;-50
2022/07/24 10:04:44;;;;;;;7.30;5.13;;;;;;;31.49;51.33;100845.41;8311489;28;20489;-54
2022/07/24 10:08:46;;;;;;;7.63;4.72;;;;;;;33.78;47.39;100844.25;8306891;28;20037;-54
2022/07/24 10:12:47;;;;;;;5.43;4.93;;;;;;;34.08;45.42;100831.25;8321068;28;20045;-50
2022/07/24 10:17:03;;;;;;;7.57;5.20;;;;;;;34.88;45.75;100825.22;8316012;28;20034;-52
2022/07/24 10:21:10;;;;;;;6.05;4.85;;;;;;;33.77;45.26;100831.34;8303171;28;20568;-54
2022/07/24 10:25:18;;;;;;;7.65;5.22;;;;;;;34.07;47.36;100818.34;8301798;28;20128;-50
2022/07/24 10:29:22;;;;;;;7.55;4.82;;;;;;;35.77;43.74;100810.56;8292827;28;20076;-53
2022/07/24 10:33:22;;;;;;;4.60;4.18;;;;;;;36.27;42.58;100824.84;8286541;28;20116;-53
2022/07/24 10:37:53;;;;;;;8.63;4.47;;;;;;;37.32;41.47;100817.59;8288648;28;20088;-51
2022/07/24 10:42:04;;;;;;;4.75;4.13;;;;;;;36.66;41.56;100822.63;8297803;28;20100;-53
2022/07/24 10:50:19;;;;;;;4.72;4.32;;;;;;;36.59;41.26;100807.22;8268995;28;20464;-50
2022/07/24 10:54:20;;;;;;;6.13;4.45;;;;;;;36.39;41.32;100801.88;8255814;28;20260;-49
2022/07/24 10:58:21;;;;;;;4.38;3.97;;;;;;;36.88;40.83;100799.44;8254718;28;20125;-53
2022/07/24 11:02:26;;;;;;;6.25;4.22;;;;;;;36.06;41.55;100785.97;8258001;28;20058;-49
2022/07/24 11:06:44;;;;;;;4.75;4.00;;;;;;;35.32;41.64;100781.78;8262020;28;20034;-52
2022/07/24 11:10:48;;;;;;;5.38;4.60;;;;;;;37.61;40.60;100774.13;8261257;28;20080;-50
2022/07/24 11:14:50;;;;;;;4.38;3.95;;;;;;;38.81;37.28;100777.94;8268239;28;20045;-53
2022/07/24 11:23:19;;;;;;;5.55;4.20;;;;;;;37.73;39.10;100766.00;8340425;27;20379;-52
2022/07/24 11:27:20;;;;;;;4.43;4.03;;;;;;;39.06;37.32;100756.69;8345492;28;20556;-51
2022/07/24 11:31:21;;;;;;;5.57;3.50;;;;;;;37.88;37.46;100751.56;8333024;28;20040;-52
2022/07/24 11:35:38;;;;;;;3.95;3.55;;;;;;;38.26;37.14;100755.84;8337904;28;20045;-53
2022/07/24 11:39:41;;;;;;;7.22;3.55;;;;;;;37.98;38.09;100756.97;8341455;28;20052;-50
2022/07/24 11:43:56;;;;;;;4.60;3.63;;;;;;;39.04;36.71;100747.69;8334392;28;20045;-49
2022/07/24 11:47:57;;;;;;;4.05;3.65;;;;;;;37.14;38.57;100741.47;8330509;28;20494;-49
2022/07/24 11:51:58;;;;;;;5.07;3.80;;;;;;;37.74;37.35;100733.81;8302642;28;20033;-49
2022/07/24 11:56:03;;;;;;;5.33;3.17;;;;;;;38.41;36.95;100730.84;8301902;28;20091;-50
2022/07/24 12:00:09;;;;;;;4.03;3.63;;;;;;;36.62;38.87;100727.69;8303452;28;20327;-51
2022/07/24 12:04:10;;;;;;;3.83;3.40;;;;;;;38.06;38.11;100722.34;8300129;28;20049;-51
2022/07/24 12:08:21;;;;;;;5.07;3.60;;;;;;;37.04;38.13;100713.41;8299341;28;20128;-53
2022/07/24 12:12:27;;;;;;;4.13;3.72;;;;;;;36.38;40.51;100698.78;8300981;28;20107;-53
2022/07/24 12:16:29;;;;;;;4.55;3.55;;;;;;;34.51;42.10;100695.66;8301858;28;20406;-50
2022/07/24 12:20:32;;;;;;;4.53;3.60;;;;;;;33.45;41.85;100687.00;8308757;28;20250;-53
2022/07/24 12:24:33;;;;;;;5.38;3.25;;;;;;;33.02;42.51;100688.50;8312604;28;20037;-49
2022/07/24 12:28:33;;;;;;;3.95;3.55;;;;;;;32.32;43.75;100682.91;8317098;28;20060;-50
2022/07/24 12:32:34;;;;;;;4.50;3.65;;;;;;;32.54;44.17;100675.13;8308818;28;20065;-50
2022/07/24 12:36:34;;;;;;;4.03;3.67;;;;;;;32.39;42.65;100674.28;8301318;28;20490;-50
2022/07/24 12:40:35;;;;;;;5.13;2.93;;;;;;;32.39;42.96;100672.31;8290668;28;20049;-52
2022/07/24 12:44:42;;;;;;;3.63;3.33;;;;;;;32.49;42.61;100666.72;8294958;28;20277;-49
2022/07/24 12:49:05;;;;;;;4.18;2.65;;;;;;;32.89;42.09;100661.09;8300040;28;20041;-50
2022/07/24 12:53:07;;;;;;;3.87;3.13;;;;;;;32.66;41.02;100658.88;8283777;28;20052;-49
2022/07/24 12:57:10;;;;;;;3.15;2.85;;;;;;;32.36;41.46;100650.47;8313904;28;20144;-49
2022/07/24 13:01:10;;;;;;;5.05;4.55;;;;;;;32.31;46.70;100644.84;8339612;28;20417;-52
2022/07/24 13:05:11;;;;;;;6.05;4.03;;;;;;;32.18;46.49;100631.41;8318410;28;20037;-52
2022/07/24 13:09:13;;;;;;;4.43;4.03;;;;;;;32.12;45.17;100626.94;8321827;28;20120;-52
2022/07/24 13:13:13;;;;;;;6.72;4.45;;;;;;;31.65;45.99;100620.69;8320995;28;20332;-50
2022/07/24 13:17:16;;;;;;;7.05;4.30;;;;;;;31.41;47.53;100599.94;8321207;28;20037;-49
2022/07/24 13:21:19;;;;;;;4.95;3.97;;;;;;;31.43;46.19;100598.53;8339382;23;20037;-86
2022/07/24 13:25:19;;;;;;;4.28;3.88;;;;;;;31.71;45.27;100581.25;8305541;28;20048;-87
2022/07/24 13:29:19;;;;;;;6.20;3.75;;;;;;;32.28;45.62;100595.00;8286408;28;20406;-86
2022/07/24 13:33:20;;;;;;;4.00;3.60;;;;;;;32.36;44.26;100604.84;8253200;28;20072;-86
2022/07/24 13:37:21;;;;;;;3.67;3.10;;;;;;;32.47;43.47;100568.13;8319066;28;20041;-86
2022/07/24 13:41:24;;;;;;;3.63;2.80;;;;;;;32.76;42.34;100574.81;8279341;28;20057;-87
2022/07/24 13:45:24;;;;;;;;;;;;;;;32.58;42.50;100581.00;8294478;28;20569;-87
2022/07/24 13:49:25;;;;;;;5.27;3.63;;;;;;;32.77;43.56;100570.00;8355170;28;19916;-87
2022/07/24 13:53:26;;;;;;;5.03;3.13;;;;;;;33.15;43.44;100570.16;8351600;28;20427;-87
2022/07/24 13:57:26;;;;;;;3.65;3.35;;;;;;;33.20;42.40;100553.34;8380517;28;20497;-87
2022/07/24 14:01:27;;;;;;;4.40;4.00;;;;;;;32.71;45.64;100530.00;8373458;28;20139;-87
2022/07/24 14:05:27;;;;;;;7.03;4.25;;;;;;;32.12;44.66;100520.59;8360970;28;20044;-86
2022/07/24 14:09:33;;;;;;;5.18;4.22;;;;;;;32.22;44.99;100503.78;8325302;28;20041;-86
2022/07/24 14:13:33;;;;;;;3.70;3.33;;;;;;;32.61;44.40;100518.81;8346430;28;20041;-87
2022/07/24 14:17:37;;;;;;;3.30;3.10;;;;;;;32.64;43.40;100526.66;8349369;28;20055;-86
2022/07/24 14:21:38;;;;;;;4.88;3.50;;;;;;;32.91;43.67;100499.13;8362279;28;20068;-86
2022/07/24 14:25:39;;;;;;;4.72;3.60;;;;;;;33.08;44.16;100508.00;8334419;28;20041;-86
2022/07/24 14:29:44;;;;;;;4.25;3.78;;;;;;;32.39;43.51;100481.94;8333468;28;20493;-86
2022/07/24 14:33:45;;;;;;;6.63;2.97;;;;;;;32.54;42.80;100473.50;8360907;28;20041;-87
2022/07/24 14:37:45;;;;;;;4.28;3.35;;;;;;;32.75;44.17;100486.25;8321307;28;20568;-87
2022/07/24 14:41:49;;;;;;;4.43;3.33;;;;;;;32.80;43.64;100477.00;8335821;28;20052;-87
2022/07/24 14:45:52;;;;;;;4.47;3.10;;;;;;;33.01;43.10;100454.25;8342800;28;20036;-86
2022/07/24 14:49:54;;;;;;;;;;;;;;;33.02;43.14;100472.72;8340282;28;20382;-86
2022/07/24 14:54:05;;;;;;;3.67;3.20;;;;;;;32.87;43.63;100450.38;8327337;28;20311;-87
2022/07/24 14:58:09;;;;;;;3.88;3.47;;;;;;;33.01;43.31;100479.47;8322432;28;20065;-87
2022/07/24 15:02:10;;;;;;;3.90;3.50;;;;;;;33.16;43.53;100458.91;8359853;28;20139;-87
2022/07/24 15:06:10;;;;;;;5.72;3.50;;;;;;;32.62;44.34;100433.69;8346173;28;20032;-87
2022/07/24 15:10:11;;;;;;;9.05;3.55;;;;;;;33.03;43.24;100448.34;8376919;28;20130;-87
2022/07/24 15:14:12;;;;;;;3.60;3.20;;;;;;;33.09;42.36;100444.38;8387357;28;20036;-87
2022/07/24 15:18:12;;;;;;;3.45;3.15;;;;;;;32.97;43.56;100430.72;8382304;28;20291;-87
2022/07/24 15:22:13;;;;;;;3.75;3.40;;;;;;;33.17;43.73;100427.78;8341979;28;20542;-87
2022/07/24 15:26:13;;;;;;;4.35;3.58;;;;;;;33.09;42.92;100430.38;8371668;28;20119;-86
2022/07/24 15:30:17;;;;;;;5.05;3.65;;;;;;;33.00;43.21;100398.47;8352202;28;20404;-87
2022/07/24 15:34:17;;;;;;;;;;;;;;;33.07;43.61;100422.25;8355716;28;20037;-87
2022/07/24 15:38:19;;;;;;;9.17;3.70;;;;;;;32.93;44.21;100418.41;8363097;28;19917;-87
2022/07/24 15:42:19;;;;;;;3.63;3.33;;;;;;;33.17;45.10;100404.50;8353861;28;20051;-87
2022/07/24 15:46:20;;;;;;;4.18;3.22;;;;;;;33.27;43.25;100408.06;8374398;28;20044;-87
2022/07/24 15:50:20;;;;;;;3.38;3.08;;;;;;;33.11;42.39;100383.28;8389222;28;20039;-88
2022/07/24 15:54:21;;;;;;;4.22;3.65;;;;;;;32.74;43.35;100383.75;8343978;28;20068;-87
2022/07/24 15:58:25;;;;;;;4.28;3.50;;;;;;;32.62;44.09;100352.47;8334191;28;20068;-87
2022/07/24 16:02:25;;;;;;;5.20;3.80;;;;;;;32.74;43.90;100364.16;8336110;28;20048;-87
2022/07/24 16:06:35;;;;;;;8.50;3.88;;;;;;;32.91;44.25;100381.47;8375262;28;20119;-86
2022/07/24 16:10:36;;;;;;;4.35;3.78;;;;;;;32.74;44.03;100350.16;8346316;28;20194;-86
2022/07/24 16:14:36;;;;;;;4.80;4.18;;;;;;;32.89;44.21;100368.84;8332866;28;20044;-86
2022/07/24 16:18:59;;;;;;;4.28;3.50;;;;;;;32.65;45.23;100368.69;8323904;28;20857;-88
2022/07/24 16:23:03;;;;;;;;;;;;;;;32.72;44.89;100363.59;8358925;28;20696;-87
2022/07/24 16:27:06;;;;;;;;;;;;;;;32.71;44.30;100353.53;8350260;28;19916;-86
2022/07/24 16:31:07;;;;;;;5.80;3.70;;;;;;;32.57;45.33;100358.09;8351430;28;19916;-87
2022/07/24 16:35:08;;;;;;;3.67;3.38;;;;;;;32.45;43.87;100331.56;8366503;28;20055;-87
2022/07/24 16:39:09;;;;;;;3.85;3.55;;;;;;;32.65;44.50;100323.06;8354045;28;20036;-87
2022/07/24 16:43:09;;;;;;;3.13;2.72;;;;;;;32.98;43.51;100339.94;8339523;28;20055;-86
2022/07/24 16:47:10;;;;;;;6.82;3.88;;;;;;;33.01;43.84;100328.13;8339446;28;20040;-87
2022/07/24 16:51:10;;;;;;;4.03;3.45;;;;;;;33.02;43.87;100318.59;8354692;28;20028;-87
2022/07/24 16:55:14;;;;;;;5.47;3.97;;;;;;;32.94;44.30;100322.03;8351547;28;20032;-87
2022/07/24 16:59:15;;;;;;;4.07;3.67;;;;;;;32.83;44.03;100323.19;8370353;28;20109;-87
2022/07/24 17:03:16;;;;;;;4.03;3.40;;;;;;;32.43;44.17;100281.47;8349224;28;20051;-87
2022/07/24 17:07:17;;;;;;;4.50;3.80;;;;;;;32.28;44.10;100273.13;8310188;28;20401;-87
2022/07/24 17:11:17;;;;;;;3.70;3.40;;;;;;;32.57;44.17;100299.31;8357768;28;20039;-86
2022/07/24 17:15:18;;;;;;;3.95;3.55;;;;;;;32.82;43.96;100313.13;8339734;28;20453;-87
2022/07/24 17:19:18;;;;;;;4.65;4.25;;;;;;;32.62;43.41;100268.44;8364183;28;20097;-86
2022/07/24 17:23:27;;;;;;;5.93;4.03;;;;;;;32.50;43.70;100269.97;8333022;28;20055;-87
2022/07/24 17:27:28;;;;;;;5.40;4.05;;;;;;;32.79;43.11;100310.06;8343122;28;20610;-87
2022/07/24 17:31:28;;;;;;;5.40;3.45;;;;;;;32.53;44.21;100284.19;8340989;28;20470;-88
2022/07/24 17:35:30;;;;;;;4.10;3.28;;;;;;;32.72;43.28;100307.56;8335267;28;20049;-88
2022/07/24 17:39:30;;;;;;;3.83;3.50;;;;;;;32.50;43.34;100281.16;8345559;28;20041;-88
2022/07/24 17:43:31;;;;;;;4.10;3.78;;;;;;;32.40;44.85;100279.25;8352818;28;20137;-87
2022/07/24 17:47:31;;;;;;;3.70;3.40;;;;;;;32.36;43.55;100277.31;8350510;28;20051;-88
2022/07/24 17:51:32;;;;;;;6.15;3.92;;;;;;;32.35;44.77;100296.06;8342855;28;21516;-87
2022/07/24 17:55:33;;;;;;;5.07;3.63;;;;;;;32.01;45.40;100267.94;8327222;28;20040;-88
2022/07/24 17:59:34;;;;;;;5.65;3.90;;;;;;;31.76;48.80;100301.59;8320001;28;20566;-87
2022/07/24 18:03:34;;;;;;;4.22;3.83;;;;;;;31.47;50.10;100268.97;8347767;28;20051;-87
2022/07/24 18:07:36;;;;;;;4.25;3.78;;;;;;;31.53;49.17;100276.22;8332739;28;20036;-87
2022/07/24 18:11:36;;;;;;;6.95;4.25;;;;;;;31.55;49.17;100271.16;8371671;28;20036;-87
2022/07/24 18:15:37;;;;;;;6.45;4.60;;;;;;;31.40;50.23;100274.00;8359706;28;20051;-86
2022/07/24 18:19:37;;;;;;;6.32;4.47;;;;;;;31.15;50.81;100262.84;8361522;28;20040;-87
2022/07/24 18:23:38;;;;;;;5.20;3.97;;;;;;;31.24;50.29;100263.94;8320318;28;20049;-87
2022/07/24 18:27:38;;;;;;;6.90;4.18;;;;;;;31.26;49.97;100281.28;8326203;28;20378;-87
2022/07/24 18:31:39;;;;;;;5.70;3.63;;;;;;;31.14;50.76;100287.16;8321565;28;20508;-87
2022/07/24 18:35:48;;;;;;;7.68;4.22;;;;;;;30.96;50.54;100281.28;8333877;28;20644;-87
2022/07/24 18:39:49;;;;;;;5.65;4.18;;;;;;;30.65;50.93;100249.72;8333559;28;20044;-87
2022/07/24 18:43:52;;;;;;;6.55;4.07;;;;;;;30.46;51.45;100247.72;8289944;28;20536;-87